Time;durP1;ratioP1;P1;durP2;ratioP2;P2;SDS_P1;SDS_P2;PMS_P1;PMS_P2;Temp;Humidity;BMP_temperature;BMP_pressure;BME280_temperature;BME280_humidity;BME280_pressure;Samples;Min_cycle;Max_cycle;Signal;HPM_P1;HPM_P2
2022/09/11 00:00:54;;;;;;;18.15;13.43;;;16.30;99.90;;;;;;5051707;28;20108;-75
2022/09/11 00:03:22;;;;;;;18.13;13.45;;;16.30;99.90;;;;;;5051555;28;20032;-75
2022/09/11 00:05:48;;;;;;;18.88;13.55;;;16.30;99.90;;;;;;5045597;28;20021;-74
2022/09/11 00:08:16;;;;;;;22.58;13.30;;;16.30;99.90;;;;;;5043471;28;20109;-74
2022/09/11 00:10:43;;;;;;;18.77;12.77;;;16.30;99.90;;;;;;5051073;28;20029;-74
2022/09/11 00:13:11;;;;;;;24.13;15.20;;;16.20;99.90;;;;;;5051129;28;20033;-75
2022/09/11 00:15:38;;;;;;;18.65;14.38;;;16.20;99.90;;;;;;5051403;28;20035;-74
2022/09/11 00:18:06;;;;;;;19.30;14.32;;;16.20;99.90;;;;;;5051187;28;20520;-74
2022/09/11 00:20:33;;;;;;;17.73;13.77;;;16.20;99.90;;;;;;5051039;28;20020;-74
2022/09/11 00:23:03;;;;;;;19.38;14.55;;;16.20;99.90;;;;;;5051244;28;20112;-75
2022/09/11 00:25:39;;;;;;;17.75;13.43;;;16.20;99.90;;;;;;5051286;28;20044;-74
2022/09/11 00:28:06;;;;;;;19.80;14.73;;;16.20;99.90;;;;;;5051255;28;20049;-75
2022/09/11 00:30:32;;;;;;;25.60;14.35;;;16.20;99.90;;;;;;5051225;28;20025;-74
2022/09/11 00:32:58;;;;;;;18.20;13.48;;;16.20;99.90;;;;;;5044401;28;20036;-74
2022/09/11 00:35:24;;;;;;;18.45;14.13;;;16.20;99.90;;;;;;5040102;28;20029;-75
2022/09/11 00:37:50;;;;;;;20.55;13.93;;;16.30;99.90;;;;;;5039851;28;20032;-74
2022/09/11 00:40:17;;;;;;;18.90;12.98;;;16.30;99.90;;;;;;5037447;28;20047;-74
2022/09/11 00:42:43;;;;;;;20.60;13.98;;;16.30;99.90;;;;;;5030288;28;20029;-75
2022/09/11 00:45:31;;;;;;;18.33;14.20;;;16.30;99.90;;;;;;5030098;28;20030;-75
2022/09/11 00:47:58;;;;;;;20.92;15.45;;;16.30;99.90;;;;;;5027206;28;20374;-75
2022/09/11 00:50:27;;;;;;;21.23;15.25;;;16.30;99.90;;;;;;5036877;28;20025;-75
2022/09/11 00:52:59;;;;;;;18.73;15.00;;;16.30;99.90;;;;;;5032779;28;20551;-75
2022/09/11 00:55:28;;;;;;;22.15;15.30;;;16.30;99.90;;;;;;5031809;28;20021;-75
2022/09/11 00:58:17;;;;;;;20.48;14.38;;;16.30;99.90;;;;;;5030430;28;20486;-75
2022/09/11 01:00:43;;;;;;;19.50;14.38;;;16.40;99.90;;;;;;5036309;28;20500;-75
2022/09/11 01:03:09;;;;;;;20.73;15.60;;;16.30;99.90;;;;;;5036178;28;20025;-75
2022/09/11 01:05:38;;;;;;;22.20;15.68;;;16.30;99.90;;;;;;5032500;28;20112;-75
2022/09/11 01:08:05;;;;;;;21.60;15.05;;;16.30;99.90;;;;;;5035084;28;20097;-75
2022/09/11 01:11:00;;;;;;;21.98;15.38;;;16.30;99.90;;;;;;5030781;28;20083;-75
2022/09/11 01:13:54;;;;;;;18.03;15.13;;;16.30;99.90;;;;;;5031380;28;20083;-76
2022/09/11 01:16:41;;;;;;;22.30;14.80;;;16.40;99.90;;;;;;5025886;28;20639;-75
2022/09/11 01:19:35;;;;;;;20.27;14.45;;;16.30;99.90;;;;;;5034781;28;20482;-75
2022/09/11 01:22:36;;;;;;;21.27;14.32;;;16.30;99.90;;;;;;5026947;28;20033;-75
2022/09/11 01:25:20;;;;;;;22.98;15.60;;;16.30;99.90;;;;;;5025713;28;20030;-75
2022/09/11 01:28:14;;;;;;;19.80;14.70;;;16.20;99.90;;;;;;5031020;28;20079;-75
2022/09/11 01:30:46;;;;;;;21.73;15.10;;;16.20;99.90;;;;;;5024599;28;20038;-74
2022/09/11 01:33:43;;;;;;;19.70;14.95;;;16.20;99.90;;;;;;5029981;28;20026;-75
2022/09/11 01:36:33;;;;;;;21.45;13.95;;;16.20;99.90;;;;;;5034124;28;20087;-75
2022/09/11 01:39:01;;;;;;;21.77;14.15;;;16.10;99.90;;;;;;5036804;28;20108;-75
2022/09/11 01:41:40;;;;;;;24.45;15.10;;;16.10;99.90;;;;;;5034864;28;20045;-75
2022/09/11 01:44:12;;;;;;;20.23;14.70;;;16.10;99.90;;;;;;5027529;28;20044;-75
2022/09/11 01:46:45;;;;;;;20.52;14.05;;;16.10;99.90;;;;;;5038260;28;20039;-76
2022/09/11 01:49:55;;;;;;;19.15;14.60;;;16.10;99.90;;;;;;5032651;28;20053;-75
2022/09/11 01:52:28;;;;;;;20.50;14.85;;;16.00;99.90;;;;;;5036463;28;20538;-75
2022/09/11 01:54:59;;;;;;;23.67;15.40;;;16.00;99.90;;;;;;5036427;28;20052;-75
2022/09/11 01:57:49;;;;;;;20.67;14.65;;;16.00;99.90;;;;;;5051349;28;20270;-75
2022/09/11 02:00:15;;;;;;;24.80;15.93;;;16.00;99.90;;;;;;5015832;28;20037;-75
2022/09/11 02:02:52;;;;;;;19.73;14.05;;;15.90;99.90;;;;;;5022358;28;20033;-75
2022/09/11 02:05:27;;;;;;;20.52;14.77;;;15.90;99.90;;;;;;5046803;28;20029;-75
2022/09/11 02:08:08;;;;;;;22.45;15.52;;;15.90;99.90;;;;;;5051332;28;20112;-75
2022/09/11 02:10:41;;;;;;;19.77;14.57;;;15.80;99.90;;;;;;5050836;28;20499;-75
2022/09/11 02:13:13;;;;;;;24.02;15.05;;;15.80;99.90;;;;;;5032164;28;20113;-75
2022/09/11 02:15:43;;;;;;;19.67;15.25;;;15.80;99.90;;;;;;5045035;28;20358;-75
2022/09/11 02:18:28;;;;;;;17.67;13.40;;;15.80;99.90;;;;;;5050972;28;20040;-75
2022/09/11 02:20:54;;;;;;;19.23;14.53;;;15.70;99.90;;;;;;5038632;28;20036;-75
2022/09/11 02:23:20;;;;;;;18.77;14.45;;;15.70;99.90;;;;;;5031867;28;20115;-75
2022/09/11 02:25:46;;;;;;;21.70;14.75;;;15.70;99.90;;;;;;5051164;28;20037;-75
2022/09/11 02:28:12;;;;;;;20.60;15.10;;;15.70;99.90;;;;;;5053649;28;20354;-75
2022/09/11 02:30:39;;;;;;;20.73;14.88;;;15.70;99.90;;;;;;5051937;28;20074;-74
2022/09/11 02:33:05;;;;;;;22.02;15.38;;;15.60;99.90;;;;;;5051021;28;20036;-75
2022/09/11 02:35:42;;;;;;;24.27;17.23;;;15.60;99.90;;;;;;5051653;28;20492;-75
2022/09/11 02:38:28;;;;;;;25.20;17.70;;;15.60;99.90;;;;;;5053172;28;20082;-75
2022/09/11 02:41:27;;;;;;;23.92;17.50;;;15.60;99.90;;;;;;5052699;28;20100;-75
2022/09/11 02:43:52;;;;;;;22.50;17.42;;;15.60;99.90;;;;;;5053035;28;20469;-74
2022/09/11 02:46:18;;;;;;;24.50;17.13;;;15.50;99.90;;;;;;5052837;28;20009;-75
2022/09/11 02:49:06;;;;;;;39.28;18.08;;;15.50;99.90;;;;;;5047172;28;20045;-75
2022/09/11 02:51:47;;;;;;;22.20;16.92;;;15.50;99.90;;;;;;5041866;28;20098;-75
2022/09/11 02:54:21;;;;;;;28.65;17.55;;;15.50;99.90;;;;;;5053101;28;20059;-75
2022/09/11 02:57:18;;;;;;;22.75;16.95;;;15.50;99.90;;;;;;5034122;28;20032;-75
2022/09/11 02:59:53;;;;;;;25.48;16.75;;;15.50;99.90;;;;;;5032504;28;20478;-75
2022/09/11 03:02:18;;;;;;;;;;;15.40;99.90;;;;;;5035454;28;20026;-75
2022/09/11 03:04:44;;;;;;;24.52;16.98;;;15.40;99.90;;;;;;5032610;28;20000;-75
2022/09/11 03:07:10;;;;;;;28.67;17.33;;;15.40;99.90;;;;;;5032504;28;20022;-75
2022/09/11 03:09:35;;;;;;;24.95;16.95;;;15.30;99.90;;;;;;5033481;28;20030;-75
2022/09/11 03:12:03;;;;;;;24.13;16.27;;;15.30;99.90;;;;;;5035177;28;20104;-75
2022/09/11 03:14:29;;;;;;;22.05;15.77;;;15.30;99.90;;;;;;5032554;28;20021;-75
2022/09/11 03:16:55;;;;;;;22.15;15.85;;;15.30;99.90;;;;;;5040034;28;20066;-75
2022/09/11 03:19:21;;;;;;;24.63;15.85;;;15.30;99.90;;;;;;5032238;28;20026;-75
2022/09/11 03:21:47;;;;;;;19.15;15.80;;;15.30;99.90;;;;;;5035115;28;20112;-75
2022/09/11 03:24:13;;;;;;;19.60;14.95;;;15.30;99.90;;;;;;5039229;28;20116;-75
2022/09/11 03:26:38;;;;;;;18.30;14.07;;;15.30;99.90;;;;;;5032105;28;20064;-75
2022/09/11 03:29:04;;;;;;;20.35;13.90;;;15.30;99.90;;;;;;5032001;28;20025;-74
2022/09/11 03:31:30;;;;;;;18.15;13.80;;;15.30;99.90;;;;;;5034469;28;20063;-75
2022/09/11 03:33:56;;;;;;;20.60;14.10;;;15.20;99.90;;;;;;5035713;28;20048;-75
2022/09/11 03:36:22;;;;;;;21.15;14.10;;;15.20;99.90;;;;;;5031761;28;20017;-74
2022/09/11 03:38:48;;;;;;;23.50;14.77;;;15.20;99.90;;;;;;5031936;28;20016;-74
2022/09/11 03:41:14;;;;;;;19.90;13.65;;;15.20;99.90;;;;;;5031549;28;20116;-75
2022/09/11 03:43:40;;;;;;;18.55;13.70;;;15.20;99.90;;;;;;5034652;28;20072;-75
2022/09/11 03:46:06;;;;;;;20.08;13.88;;;15.10;99.90;;;;;;5031679;28;20025;-75
2022/09/11 03:48:32;;;;;;;18.02;12.73;;;15.10;99.90;;;;;;5031318;28;20100;-75
2022/09/11 03:50:57;;;;;;;17.40;13.60;;;15.10;99.90;;;;;;5037281;28;20505;-74
2022/09/11 03:53:24;;;;;;;17.50;13.23;;;15.10;99.90;;;;;;5038784;28;20030;-74
2022/09/11 03:55:49;;;;;;;21.42;13.57;;;15.00;99.90;;;;;;5031659;28;20025;-75
2022/09/11 03:58:18;;;;;;;20.58;14.88;;;15.00;99.90;;;;;;5030843;28;20025;-75
2022/09/11 04:00:45;;;;;;;20.73;14.25;;;15.00;99.90;;;;;;5031851;28;20059;-75
2022/09/11 04:03:12;;;;;;;19.75;14.20;;;15.00;99.90;;;;;;5038189;28;20029;-75
2022/09/11 04:05:38;;;;;;;18.65;13.70;;;14.90;99.90;;;;;;5031347;28;20025;-75
2022/09/11 04:08:05;;;;;;;20.33;14.57;;;14.90;99.90;;;;;;5031081;28;20022;-75
2022/09/11 04:10:33;;;;;;;22.98;15.68;;;14.90;99.90;;;;;;5031330;28;20052;-75
2022/09/11 04:12:58;;;;;;;21.90;14.35;;;14.90;99.90;;;;;;5041966;28;20037;-75
2022/09/11 04:15:24;;;;;;;22.00;15.00;;;14.90;99.90;;;;;;5039101;28;20108;-75
2022/09/11 04:17:50;;;;;;;22.13;15.38;;;14.90;99.90;;;;;;5029659;28;20036;-75
2022/09/11 04:20:15;;;;;;;20.50;14.52;;;14.90;99.90;;;;;;5031299;28;20032;-75
2022/09/11 04:22:41;;;;;;;23.33;15.85;;;14.80;99.90;;;;;;5038552;28;20040;-74
2022/09/11 04:25:07;;;;;;;22.38;16.15;;;14.80;99.90;;;;;;5019713;28;20025;-75
2022/09/11 04:27:33;;;;;;;21.08;14.77;;;14.80;99.90;;;;;;5030783;28;20423;-75
2022/09/11 04:29:59;;;;;;;21.60;15.23;;;14.80;99.90;;;;;;5030889;28;20017;-75
2022/09/11 04:32:24;;;;;;;26.85;15.93;;;14.80;99.90;;;;;;5031288;28;20121;-75
2022/09/11 04:34:50;;;;;;;26.30;18.67;;;14.80;99.90;;;;;;5031931;28;20052;-74
2022/09/11 04:37:15;;;;;;;34.55;21.63;;;14.70;99.90;;;;;;5031034;28;20051;-75
2022/09/11 04:39:42;;;;;;;29.85;19.73;;;14.70;99.90;;;;;;5030752;28;20021;-75
2022/09/11 04:42:09;;;;;;;26.50;17.60;;;14.70;99.90;;;;;;5037040;28;20560;-75
2022/09/11 04:44:35;;;;;;;29.17;18.98;;;14.70;99.90;;;;;;5025774;28;20037;-75
2022/09/11 04:47:01;;;;;;;27.65;18.15;;;14.70;99.90;;;;;;5030582;28;20557;-75
2022/09/11 04:49:27;;;;;;;27.58;16.88;;;14.70;99.90;;;;;;5030744;28;20116;-75
2022/09/11 04:51:53;;;;;;;25.33;17.63;;;14.70;99.90;;;;;;5032170;28;20042;-75
2022/09/11 04:54:20;;;;;;;30.05;17.55;;;14.70;99.90;;;;;;5030854;28;20666;-75
2022/09/11 04:56:46;;;;;;;26.98;17.42;;;14.70;99.90;;;;;;5031926;28;20025;-75
2022/09/11 04:59:18;;;;;;;25.52;17.70;;;14.60;99.90;;;;;;5040822;28;20108;-75
2022/09/11 05:01:45;;;;;;;25.17;17.67;;;14.60;99.90;;;;;;5036396;28;20444;-75
2022/09/11 05:04:14;;;;;;;27.90;17.63;;;14.60;99.90;;;;;;5043738;28;20457;-74
2022/09/11 05:06:41;;;;;;;26.80;18.17;;;14.60;99.90;;;;;;5031064;28;20035;-74
2022/09/11 05:09:08;;;;;;;24.85;17.85;;;14.60;99.90;;;;;;5030291;28;20386;-75
2022/09/11 05:11:37;;;;;;;29.20;20.00;;;14.60;99.90;;;;;;5029825;28;20021;-74
2022/09/11 05:14:02;;;;;;;32.22;20.67;;;14.60;99.90;;;;;;5025757;28;20029;-74
2022/09/11 05:16:29;;;;;;;32.53;22.60;;;14.60;99.90;;;;;;5030421;28;20497;-75
2022/09/11 05:18:55;;;;;;;33.15;21.13;;;14.60;99.90;;;;;;5030580;28;20302;-74
2022/09/11 05:21:23;;;;;;;28.88;20.13;;;14.60;99.90;;;;;;5032082;28;20021;-74
2022/09/11 05:23:51;;;;;;;30.65;20.38;;;14.60;99.90;;;;;;5034022;28;20022;-75
2022/09/11 05:26:22;;;;;;;33.67;21.10;;;14.60;99.90;;;;;;5043637;28;20017;-75
2022/09/11 05:28:53;;;;;;;28.08;20.00;;;14.60;99.90;;;;;;5047012;28;20040;-75
2022/09/11 05:31:18;;;;;;;32.78;20.00;;;14.50;99.90;;;;;;5044460;28;20033;-74
2022/09/11 05:33:45;;;;;;;30.95;20.60;;;14.60;99.90;;;;;;5037181;28;20047;-75
2022/09/11 05:36:12;;;;;;;30.67;20.92;;;14.60;99.90;;;;;;5045742;28;20385;-74
2022/09/11 05:38:38;;;;;;;32.38;21.08;;;14.60;99.90;;;;;;5040665;28;20024;-75
2022/09/11 05:41:08;;;;;;;30.98;20.88;;;14.60;99.90;;;;;;5045144;28;20044;-76
2022/09/11 05:43:34;;;;;;;29.17;19.85;;;14.60;99.90;;;;;;5041470;28;20397;-75
2022/09/11 05:46:01;;;;;;;30.40;19.60;;;14.60;99.90;;;;;;5044253;28;20365;-75
2022/09/11 05:48:27;;;;;;;29.15;20.60;;;14.60;99.90;;;;;;5038627;28;20056;-76
2022/09/11 05:50:58;;;;;;;33.67;21.08;;;14.60;99.90;;;;;;5045831;28;20036;-75
2022/09/11 05:53:25;;;;;;;28.88;20.13;;;14.60;99.90;;;;;;5040162;28;20533;-75
2022/09/11 05:55:50;;;;;;;33.95;21.02;;;14.60;99.90;;;;;;5044009;28;20035;-75
2022/09/11 05:58:17;;;;;;;31.98;19.75;;;14.70;99.90;;;;;;5043796;28;20059;-75
2022/09/11 06:00:47;;;;;;;30.40;20.52;;;14.70;99.90;;;;;;5046973;28;20017;-75
2022/09/11 06:03:13;;;;;;;30.95;21.58;;;14.70;99.90;;;;;;5039139;28;20083;-75
2022/09/11 06:05:39;;;;;;;32.63;20.88;;;14.70;99.90;;;;;;5032205;28;20033;-75
2022/09/11 06:08:06;;;;;;;34.30;21.30;;;14.70;99.90;;;;;;5030829;28;20032;-75
2022/09/11 06:10:31;;;;;;;30.05;20.48;;;14.80;99.90;;;;;;5034206;28;20021;-75
2022/09/11 06:12:57;;;;;;;34.85;23.35;;;14.80;99.90;;;;;;5037166;28;20499;-75
2022/09/11 06:15:24;;;;;;;40.50;23.75;;;14.80;99.90;;;;;;5029010;28;20524;-75
2022/09/11 06:17:50;;;;;;;37.92;23.42;;;14.80;99.90;;;;;;5030494;28;20031;-76
2022/09/11 06:20:15;;;;;;;40.63;25.00;;;14.90;99.90;;;;;;5031910;28;20108;-76
2022/09/11 06:22:41;;;;;;;36.92;23.75;;;14.90;99.90;;;;;;5039267;28;20082;-76
2022/09/11 06:25:08;;;;;;;36.40;24.05;;;14.90;99.90;;;;;;5039618;28;20032;-76
2022/09/11 06:27:33;;;;;;;33.17;21.77;;;15.00;99.90;;;;;;5038697;28;20042;-76
2022/09/11 06:29:59;;;;;;;33.97;20.63;;;15.00;99.90;;;;;;5033386;28;20084;-76
2022/09/11 06:32:24;;;;;;;32.22;20.23;;;15.00;99.90;;;;;;5041978;28;20501;-76
2022/09/11 06:34:50;;;;;;;31.85;20.60;;;15.10;99.90;;;;;;5037728;28;20445;-76
2022/09/11 06:37:16;;;;;;;32.55;21.05;;;15.10;99.90;;;;;;5033478;28;20104;-76
2022/09/11 06:39:41;;;;;;;31.52;21.02;;;15.10;99.90;;;;;;5033106;28;20101;-78
2022/09/11 06:42:07;;;;;;;32.80;22.23;;;15.20;99.90;;;;;;5034480;28;20479;-78
2022/09/11 06:44:33;;;;;;;34.85;22.00;;;15.20;99.90;;;;;;5036350;28;20225;-77
2022/09/11 06:46:59;;;;;;;36.65;23.70;;;15.30;99.90;;;;;;5046800;28;20480;-77
2022/09/11 06:49:25;;;;;;;34.30;22.90;;;15.30;99.90;;;;;;5052158;28;20020;-78
2022/09/11 06:51:52;;;;;;;38.33;24.42;;;15.40;99.90;;;;;;5046190;28;20033;-78
2022/09/11 06:54:18;;;;;;;41.38;25.20;;;15.40;99.90;;;;;;5045197;28;20025;-78
2022/09/11 06:56:44;;;;;;;44.90;28.05;;;15.50;99.90;;;;;;5049678;28;20048;-78
2022/09/11 06:59:09;;;;;;;48.65;28.60;;;15.50;99.90;;;;;;5043299;28;20416;-79
2022/09/11 07:01:35;;;;;;;46.58;28.52;;;15.60;99.90;;;;;;5045394;28;20029;-78
2022/09/11 07:04:01;;;;;;;47.28;28.75;;;15.70;99.90;;;;;;5039196;28;20120;-77
2022/09/11 07:06:29;;;;;;;55.60;33.70;;;15.80;99.90;;;;;;5049066;28;20025;-77
2022/09/11 07:09:05;;;;;;;58.72;35.05;;;15.80;99.90;;;;;;5045842;28;20053;-77
2022/09/11 07:11:33;;;;;;;57.83;34.05;;;15.90;99.90;;;;;;5043849;28;20130;-71
2022/09/11 07:14:00;;;;;;;55.35;33.90;;;16.00;99.90;;;;;;5045406;28;20040;-72
2022/09/11 07:16:26;;;;;;;57.83;34.40;;;16.10;99.90;;;;;;5048570;28;20013;-72
2022/09/11 07:18:51;;;;;;;54.33;33.03;;;16.20;99.90;;;;;;5041802;28;20032;-72
2022/09/11 07:21:20;;;;;;;50.83;32.80;;;16.20;99.90;;;;;;5046427;28;20029;-73
2022/09/11 07:23:53;;;;;;;52.85;32.30;;;16.30;99.90;;;;;;5042794;28;20507;-72
2022/09/11 07:26:20;;;;;;;50.53;32.05;;;16.40;99.90;;;;;;5047389;28;20017;-72
2022/09/11 07:28:50;;;;;;;47.15;30.20;;;16.50;99.90;;;;;;5043572;28;20469;-71
2022/09/11 07:31:21;;;;;;;46.20;30.50;;;16.50;99.90;;;;;;5041262;28;20144;-73
2022/09/11 07:33:48;;;;;;;44.42;29.38;;;16.60;99.90;;;;;;5037535;28;20540;-71
2022/09/11 07:36:17;;;;;;;42.05;30.45;;;16.70;99.90;;;;;;5040407;28;20039;-73
2022/09/11 07:38:45;;;;;;;41.20;27.45;;;16.80;99.90;;;;;;5043668;28;20017;-73
2022/09/11 07:41:12;;;;;;;42.53;28.20;;;16.90;99.90;;;;;;5039616;28;20022;-73
2022/09/11 07:43:39;;;;;;;35.08;24.55;;;17.00;99.90;;;;;;5043156;28;20025;-71
2022/09/11 07:46:05;;;;;;;35.88;24.98;;;17.20;99.90;;;;;;5042059;28;20489;-73
2022/09/11 07:48:31;;;;;;;35.25;24.80;;;17.30;99.90;;;;;;5039829;28;20277;-73
2022/09/11 07:51:03;;;;;;;33.08;23.88;;;17.40;99.90;;;;;;5048119;28;20044;-73
2022/09/11 07:53:40;;;;;;;31.90;22.77;;;17.50;99.90;;;;;;5043602;28;20408;-73
2022/09/11 07:56:13;;;;;;;29.80;22.27;;;17.60;99.90;;;;;;5042793;28;20088;-73
2022/09/11 07:58:41;;;;;;;28.25;21.08;;;17.70;99.90;;;;;;5032998;28;20389;-73
2022/09/11 08:01:18;;;;;;;26.38;19.92;;;17.80;99.90;;;;;;5041948;28;20025;-73
2022/09/11 08:03:44;;;;;;;26.58;20.15;;;17.90;99.90;;;;;;5042238;28;20031;-73
2022/09/11 08:06:12;;;;;;;27.58;20.63;;;18.00;99.90;;;;;;5048969;28;20013;-73
2022/09/11 08:08:40;;;;;;;27.27;19.67;;;18.10;99.90;;;;;;5047440;28;20060;-73
2022/09/11 08:11:08;;;;;;;23.70;18.73;;;18.20;99.90;;;;;;5036063;28;20037;-73
2022/09/11 08:13:34;;;;;;;21.92;14.77;;;18.40;99.90;;;;;;5041012;28;20089;-72
2022/09/11 08:15:59;;;;;;;20.17;13.80;;;18.50;99.90;;;;;;5033730;28;20021;-73
2022/09/11 08:18:25;;;;;;;16.05;11.93;;;18.60;99.90;;;;;;5036358;28;20028;-73
2022/09/11 08:20:51;;;;;;;15.23;11.05;;;18.80;99.90;;;;;;5035631;28;20033;-73
2022/09/11 08:23:16;;;;;;;18.48;11.82;;;18.90;99.90;;;;;;5039201;28;20066;-73
2022/09/11 08:25:42;;;;;;;19.02;13.90;;;19.10;99.90;;;;;;5037412;28;20029;-72
2022/09/11 08:28:08;;;;;;;19.05;12.85;;;19.20;99.90;;;;;;5031054;28;20466;-72
2022/09/11 08:30:37;;;;;;;19.70;14.07;;;19.40;99.90;;;;;;5030758;28;20032;-73
2022/09/11 08:33:08;;;;;;;16.17;11.02;;;19.50;99.90;;;;;;5037148;28;20021;-73
2022/09/11 08:35:34;;;;;;;15.40;10.23;;;19.70;99.90;;;;;;5032070;28;20430;-73
2022/09/11 08:38:00;;;;;;;13.77;10.43;;;19.80;99.90;;;;;;5038804;28;20485;-72
2022/09/11 08:40:27;;;;;;;12.98;10.45;;;20.00;99.90;;;;;;5037605;28;20029;-73
2022/09/11 08:42:56;;;;;;;19.15;12.68;;;20.20;99.90;;;;;;5037965;28;20064;-72
2022/09/11 08:45:24;;;;;;;20.15;13.55;;;20.30;99.90;;;;;;5040507;28;20029;-72
2022/09/11 08:47:53;;;;;;;16.00;12.38;;;20.50;99.90;;;;;;5039744;28;20057;-73
2022/09/11 08:50:42;;;;;;;14.35;9.93;;;20.50;99.90;;;;;;5039256;28;20028;-73
2022/09/11 08:53:16;;;;;;;12.95;9.57;;;20.60;99.90;;;;;;5042194;28;20056;-72
2022/09/11 08:55:55;;;;;;;11.05;7.85;;;20.70;99.90;;;;;;5049024;28;20076;-72
2022/09/11 08:58:43;;;;;;;12.45;8.18;;;20.80;99.90;;;;;;5045259;28;20025;-72
2022/09/11 09:01:34;;;;;;;10.02;7.63;;;21.00;99.90;;;;;;5038320;28;20052;-72
2022/09/11 09:04:29;;;;;;;10.82;6.95;;;21.20;99.90;;;;;;5032701;28;20017;-71
2022/09/11 09:06:58;;;;;;;9.07;6.78;;;21.40;99.90;;;;;;5032950;28;20032;-72
2022/09/11 09:09:58;;;;;;;12.57;8.18;;;21.50;99.90;;;;;;5040662;28;20107;-72
2022/09/11 09:12:34;;;;;;;11.27;6.95;;;21.70;99.90;;;;;;5042127;28;20424;-72
2022/09/11 09:15:25;;;;;;;12.73;6.63;;;21.90;99.90;;;;;;5041966;28;20540;-71
2022/09/11 09:18:10;;;;;;;8.32;5.40;;;22.10;99.90;;;;;;5042662;28;20036;-72
2022/09/11 09:20:42;;;;;;;7.85;4.03;;;22.40;99.90;;;;;;5041000;28;20119;-72
2022/09/11 09:23:36;;;;;;;8.52;4.38;;;22.60;99.90;;;;;;5039372;28;20040;-71
2022/09/11 09:26:01;;;;;;;6.88;3.53;;;22.80;99.90;;;;;;5041190;28;20036;-71
2022/09/11 09:28:39;;;;;;;8.90;3.67;;;22.90;99.90;;;;;;5046549;28;20465;-72
2022/09/11 09:31:09;;;;;;;7.22;4.18;;;23.20;99.90;;;;;;5047464;28;20503;-72
2022/09/11 09:33:42;;;;;;;5.25;4.05;;;23.30;99.90;;;;;;5045330;28;20036;-72
2022/09/11 09:36:20;;;;;;;9.88;5.22;;;23.40;99.90;;;;;;5043171;28;20021;-71
2022/09/11 09:38:47;;;;;;;6.63;4.97;;;23.50;99.90;;;;;;5031906;28;20033;-72
2022/09/11 09:41:21;;;;;;;10.10;4.18;;;23.60;99.90;;;;;;5034703;28;20029;-72
2022/09/11 09:44:27;;;;;;;8.07;4.50;;;23.50;99.90;;;;;;5032210;28;20300;-72
2022/09/11 09:46:54;;;;;;;7.65;4.72;;;23.40;99.90;;;;;;5039365;28;20076;-73
2022/09/11 09:49:30;;;;;;;7.47;4.15;;;23.20;99.90;;;;;;5031826;28;20497;-72
2022/09/11 09:51:58;;;;;;;5.18;3.42;;;23.20;99.90;;;;;;5032490;28;20065;-72
2022/09/11 09:54:28;;;;;;;6.65;3.78;;;23.10;99.90;;;;;;5041397;28;20029;-72
2022/09/11 09:57:04;;;;;;;6.18;3.80;;;23.30;99.90;;;;;;5049655;28;20119;-72
2022/09/11 10:00:05;;;;;;;6.75;3.28;;;23.50;99.90;;;;;;5045596;28;20120;-72
2022/09/11 10:02:44;;;;;;;6.43;3.03;;;23.70;99.90;;;;;;5031246;28;20037;-72
2022/09/11 10:05:18;;;;;;;5.45;2.80;;;23.90;99.90;;;;;;5040594;28;20025;-72
2022/09/11 10:07:50;;;;;;;7.40;3.20;;;24.00;99.90;;;;;;5035267;28;20022;-72
2022/09/11 10:10:30;;;;;;;4.38;2.83;;;24.20;99.90;;;;;;5035411;28;20021;-72
2022/09/11 10:13:01;;;;;;;9.70;3.58;;;24.30;99.90;;;;;;5031461;28;20091;-72
2022/09/11 10:15:28;;;;;;;6.88;3.42;;;24.40;99.90;;;;;;5038490;28;20029;-71
2022/09/11 10:18:16;;;;;;;6.47;3.50;;;24.50;99.90;;;;;;5039120;28;20017;-72
2022/09/11 10:20:41;;;;;;;5.68;2.95;;;24.60;99.90;;;;;;5032137;28;20043;-73
2022/09/11 10:23:28;;;;;;;6.80;3.30;;;24.60;99.90;;;;;;5033614;28;20115;-72
2022/09/11 10:25:54;;;;;;;5.10;3.00;;;24.70;99.90;;;;;;5034912;28;20105;-73
2022/09/11 10:28:32;;;;;;;6.07;3.25;;;24.70;99.90;;;;;;5033578;28;20171;-73
2022/09/11 10:31:01;;;;;;;4.63;3.05;;;24.70;99.90;;;;;;5034100;28;20032;-72
2022/09/11 10:33:29;;;;;;;6.32;2.75;;;24.60;99.90;;;;;;5033475;28;20451;-72
2022/09/11 10:35:57;;;;;;;5.53;3.25;;;24.40;99.90;;;;;;5032127;28;20107;-72
2022/09/11 10:38:32;;;;;;;6.70;3.50;;;24.10;99.90;;;;;;5035527;28;20033;-72
2022/09/11 10:41:13;;;;;;;9.18;3.63;;;23.90;99.90;;;;;;5035749;28;20393;-72
2022/09/11 10:44:00;;;;;;;6.40;3.88;;;23.60;99.90;;;;;;5036237;28;20025;-72
2022/09/11 10:46:27;;;;;;;9.80;3.80;;;23.30;99.90;;;;;;5028449;28;20030;-72
2022/09/11 10:49:04;;;;;;;4.22;3.35;;;23.10;99.90;;;;;;5034265;28;20046;-72
2022/09/11 10:51:32;;;;;;;8.63;4.07;;;22.90;99.90;;;;;;5037240;28;20028;-72
2022/09/11 10:54:27;;;;;;;6.90;3.97;;;22.80;99.90;;;;;;5040018;28;20048;-72
2022/09/11 10:57:19;;;;;;;7.65;3.55;;;22.60;99.90;;;;;;5034033;28;20021;-72
2022/09/11 10:59:54;;;;;;;9.38;3.70;;;22.50;99.90;;;;;;5030700;28;20017;-71
2022/09/11 11:02:27;;;;;;;;;;;22.50;99.90;;;;;;5028879;28;20025;-72
2022/09/11 11:04:54;;;;;;;5.45;3.80;;;22.40;99.90;;;;;;5031619;28;20301;-72
2022/09/11 11:07:41;;;;;;;6.53;3.67;;;22.30;99.90;;;;;;5040473;28;20033;-72
2022/09/11 11:10:44;;;;;;;6.32;3.42;;;22.30;99.90;;;;;;5032261;28;20067;-72
2022/09/11 11:13:18;;;;;;;7.57;3.60;;;22.30;99.90;;;;;;5039153;28;20048;-73
2022/09/11 11:16:03;;;;;;;14.77;4.65;;;22.50;99.90;;;;;;5044869;28;20031;-74
2022/09/11 11:18:37;;;;;;;18.23;6.05;;;22.80;99.90;;;;;;5048672;28;20045;-73
2022/09/11 11:21:18;;;;;;;8.48;3.65;;;23.00;99.90;;;;;;5043053;28;20029;-72
2022/09/11 11:24:31;;;;;;;6.15;2.78;;;23.40;99.90;;;;;;5039577;28;20029;-72
2022/09/11 11:27:04;;;;;;;6.25;2.50;;;23.80;99.90;;;;;;5039818;28;20042;-72
2022/09/11 11:29:36;;;;;;;3.92;2.30;;;24.10;99.90;;;;;;5044133;28;20026;-71
2022/09/11 11:32:23;;;;;;;7.43;3.42;;;24.20;99.90;;;;;;5041706;28;20033;-73
2022/09/11 11:35:01;;;;;;;5.70;3.20;;;24.40;99.90;;;;;;5040712;28;20042;-72
2022/09/11 11:37:33;;;;;;;4.70;2.97;;;24.40;99.90;;;;;;5032323;28;20136;-73
2022/09/11 11:40:18;;;;;;;5.55;2.70;;;24.40;99.90;;;;;;5041633;28;20043;-72
2022/09/11 11:42:54;;;;;;;4.63;2.57;;;24.40;99.90;;;;;;5029031;28;20018;-73
2022/09/11 11:45:22;;;;;;;6.82;2.75;;;24.60;99.90;;;;;;5040453;28;20032;-73
2022/09/11 11:47:51;;;;;;;3.85;2.63;;;24.50;99.90;;;;;;5039468;28;20045;-74
2022/09/11 11:50:25;;;;;;;4.53;2.53;;;24.50;99.90;;;;;;5037618;28;20033;-73
2022/09/11 11:53:17;;;;;;;7.45;2.70;;;24.40;99.90;;;;;;5038156;28;20044;-72
2022/09/11 11:56:05;;;;;;;5.78;2.53;;;24.30;99.90;;;;;;5040453;28;20425;-72
2022/09/11 11:58:42;;;;;;;6.32;2.67;;;24.20;99.90;;;;;;5036728;28;20029;-73
2022/09/11 12:01:22;;;;;;;6.18;2.75;;;24.10;99.90;;;;;;5036767;28;20032;-73
2022/09/11 12:04:08;;;;;;;4.97;2.42;;;24.00;99.90;;;;;;5041471;28;20041;-72
2022/09/11 12:06:34;;;;;;;3.95;2.80;;;23.90;99.90;;;;;;5040725;28;20026;-72
2022/09/11 12:09:03;;;;;;;4.95;2.83;;;23.80;99.90;;;;;;5035235;28;20094;-73
2022/09/11 12:11:30;;;;;;;6.05;2.80;;;23.80;99.90;;;;;;5035428;28;20385;-71
2022/09/11 12:13:57;;;;;;;4.47;2.38;;;23.80;99.90;;;;;;5035110;28;20037;-72
2022/09/11 12:16:32;;;;;;;5.75;2.60;;;23.80;99.90;;;;;;5038167;28;20017;-73
2022/09/11 12:19:18;;;;;;;4.25;2.72;;;23.80;99.90;;;;;;5031255;28;20482;-72
2022/09/11 12:21:53;;;;;;;4.60;2.67;;;23.80;99.90;;;;;;5036008;28;20039;-71
2022/09/11 12:24:43;;;;;;;3.13;2.30;;;23.90;99.90;;;;;;5034742;28;20041;-72
2022/09/11 12:27:48;;;;;;;5.22;2.53;;;23.90;99.90;;;;;;5032988;28;20167;-72
2022/09/11 12:30:16;;;;;;;4.95;2.67;;;24.10;99.90;;;;;;5040249;28;20036;-73
2022/09/11 12:32:43;;;;;;;5.60;2.50;;;24.30;99.90;;;;;;5041924;28;20401;-73
2022/09/11 12:35:25;;;;;;;4.90;2.42;;;24.50;99.90;;;;;;5038655;28;20025;-73
2022/09/11 12:37:58;;;;;;;4.13;1.77;;;24.70;99.60;;;;;;5033636;28;20409;-72
2022/09/11 12:40:32;;;;;;;6.28;2.17;;;25.00;99.30;;;;;;5039873;28;20669;-73
2022/09/11 12:43:35;;;;;;;2.92;2.00;;;25.30;98.90;;;;;;5035591;28;20030;-72
2022/09/11 12:46:35;;;;;;;4.53;2.30;;;25.50;98.30;;;;;;5032233;28;20061;-72
2022/09/11 12:49:04;;;;;;;5.85;2.35;;;25.70;97.90;;;;;;5040358;28;20390;-72
2022/09/11 12:51:38;;;;;;;4.07;2.38;;;25.90;98.00;;;;;;5039515;28;20025;-73
2022/09/11 12:54:15;;;;;;;7.55;2.33;;;26.00;97.60;;;;;;5040097;28;20037;-72
2022/09/11 12:56:51;;;;;;;5.07;2.20;;;26.10;97.00;;;;;;5047046;28;20119;-73
2022/09/11 12:59:28;;;;;;;3.30;2.00;;;26.20;96.40;;;;;;5044139;28;20067;-73